Time;durP1;ratioP1;P1;durP2;ratioP2;P2;SDS_P1;SDS_P2;PMS_P1;PMS_P2;Temp;Humidity;BMP_temperature;BMP_pressure;BME280_temperature;BME280_humidity;BME280_pressure;Samples;Min_cycle;Max_cycle;Signal;HPM_P1;HPM_P2
2024/02/03 00:00:31;;;;;;;1.33;0.82;;;8.50;65.10;;;;;;7568124;19;20109;-74
2024/02/03 00:03:04;;;;;;;1.70;0.93;;;8.40;64.80;;;;;;7583758;19;20067;-74
2024/02/03 00:05:36;;;;;;;1.42;0.82;;;8.40;65.10;;;;;;7567705;19;20591;-73
2024/02/03 00:08:08;;;;;;;1.17;0.60;;;8.40;64.60;;;;;;7580925;19;20913;-75
2024/02/03 00:10:41;;;;;;;0.50;0.50;;;8.40;63.70;;;;;;7581582;19;20014;-75
2024/02/03 00:13:13;;;;;;;1.35;0.70;;;8.40;64.70;;;;;;7586845;19;20106;-74
2024/02/03 00:15:46;;;;;;;1.55;0.70;;;8.30;65.90;;;;;;7569411;19;20014;-73
2024/02/03 00:18:19;;;;;;;1.35;0.77;;;8.30;64.30;;;;;;7584894;19;20597;-74
2024/02/03 00:20:52;;;;;;;1.02;0.50;;;8.30;64.60;;;;;;7583487;19;20117;-74
2024/02/03 00:23:24;;;;;;;1.50;0.70;;;8.30;64.20;;;;;;7580438;19;20022;-75
2024/02/03 00:25:56;;;;;;;1.50;0.50;;;8.30;64.10;;;;;;7583452;19;20322;-74
2024/02/03 00:28:29;;;;;;;0.87;0.60;;;8.40;63.20;;;;;;7568351;19;21146;-72
2024/02/03 00:31:01;;;;;;;0.60;0.55;;;8.40;63.30;;;;;;7552830;19;20271;-75
2024/02/03 00:33:33;;;;;;;3.30;0.50;;;8.40;63.10;;;;;;7566592;19;20498;-75
2024/02/03 00:36:07;;;;;;;0.80;0.40;;;8.40;62.30;;;;;;7581634;19;20085;-73
2024/02/03 00:38:39;;;;;;;0.65;0.40;;;8.40;62.50;;;;;;7564878;19;20018;-73
2024/02/03 00:41:12;;;;;;;0.30;0.30;;;8.50;62.60;;;;;;7582608;19;20015;-74
2024/02/03 00:43:44;;;;;;;0.52;0.40;;;8.40;62.20;;;;;;7578762;19;20010;-74
2024/02/03 00:46:16;;;;;;;1.35;0.47;;;8.40;61.00;;;;;;7580833;19;20270;-74
2024/02/03 00:48:49;;;;;;;0.60;0.40;;;8.50;61.20;;;;;;7581649;19;20565;-74
2024/02/03 00:51:21;;;;;;;1.08;0.40;;;8.40;61.40;;;;;;7585815;19;20021;-74
2024/02/03 00:53:54;;;;;;;0.50;0.40;;;8.40;61.90;;;;;;7579289;19;20010;-74
2024/02/03 00:56:26;;;;;;;1.65;0.75;;;8.50;60.20;;;;;;7584349;19;20022;-74
2024/02/03 00:58:59;;;;;;;0.95;0.50;;;8.50;60.70;;;;;;7587587;19;20010;-74
2024/02/03 01:01:32;;;;;;;1.02;0.60;;;8.50;59.80;;;;;;7590634;19;20072;-75
2024/02/03 01:04:04;;;;;;;0.88;0.43;;;8.60;60.30;;;;;;7587968;19;21088;-74
2024/02/03 01:06:37;;;;;;;0.88;0.50;;;8.50;60.00;;;;;;7574213;19;20029;-75
2024/02/03 01:09:10;;;;;;;1.38;0.50;;;8.50;59.80;;;;;;7582738;19;20010;-75
2024/02/03 01:11:42;;;;;;;0.95;0.60;;;8.50;60.00;;;;;;7585305;19;20396;-74
2024/02/03 01:14:15;;;;;;;1.50;0.47;;;8.40;60.00;;;;;;7585553;19;20011;-74
2024/02/03 01:16:48;;;;;;;1.05;0.38;;;8.50;60.20;;;;;;7574828;19;20028;-74
2024/02/03 01:19:21;;;;;;;0.50;0.40;;;8.40;59.20;;;;;;7589539;19;20027;-74
2024/02/03 01:21:53;;;;;;;0.70;0.50;;;8.40;60.20;;;;;;7587563;19;20049;-74
2024/02/03 01:24:29;;;;;;;0.60;0.40;;;8.40;59.70;;;;;;7579096;19;20039;-73
2024/02/03 01:27:01;;;;;;;0.57;0.38;;;8.40;60.00;;;;;;7587088;19;20033;-73
2024/02/03 01:29:34;;;;;;;0.50;0.50;;;8.40;58.80;;;;;;7580585;19;20868;-76
2024/02/03 01:32:07;;;;;;;0.60;0.60;;;8.50;58.40;;;;;;7587595;19;20010;-74
2024/02/03 01:34:39;;;;;;;1.27;0.55;;;8.50;57.60;;;;;;7562206;19;20025;-75
2024/02/03 01:37:12;;;;;;;1.65;0.75;;;8.60;58.30;;;;;;7578515;19;20006;-73
2024/02/03 01:39:44;;;;;;;5.28;1.83;;;8.60;59.30;;;;;;7567008;19;20015;-76
2024/02/03 01:42:16;;;;;;;4.38;1.80;;;8.50;59.20;;;;;;7573822;19;20010;-73
2024/02/03 01:44:49;;;;;;;2.92;1.48;;;8.60;58.20;;;;;;7587161;19;20558;-73
2024/02/03 01:47:21;;;;;;;5.55;1.90;;;8.60;58.10;;;;;;7585544;19;20492;-74
2024/02/03 01:49:54;;;;;;;2.03;0.70;;;8.50;58.90;;;;;;7577339;19;20018;-75
2024/02/03 01:52:26;;;;;;;3.78;1.67;;;8.60;58.00;;;;;;7585763;19;20014;-74
2024/02/03 01:54:59;;;;;;;0.55;0.43;;;8.60;57.60;;;;;;7577814;19;20018;-73
2024/02/03 01:57:32;;;;;;;0.60;0.57;;;8.70;56.40;;;;;;7575487;19;20022;-76
2024/02/03 02:00:05;;;;;;;;;;;8.80;55.90;;;;;;7585745;19;20062;-73
2024/02/03 02:02:40;;;;;;;0.50;0.30;;;8.80;57.00;;;;;;7574796;19;19923;-74
2024/02/03 02:05:12;;;;;;;1.23;0.73;;;8.70;57.00;;;;;;7578460;19;20025;-74
2024/02/03 02:07:45;;;;;;;0.60;0.40;;;8.70;56.20;;;;;;7564209;19;20034;-73
2024/02/03 02:10:17;;;;;;;0.52;0.30;;;8.70;56.50;;;;;;7587434;19;20019;-73
2024/02/03 02:12:49;;;;;;;0.95;0.60;;;8.70;56.70;;;;;;7578609;19;20108;-74
2024/02/03 02:15:22;;;;;;;1.20;0.57;;;8.70;56.20;;;;;;7577635;19;20101;-74
2024/02/03 02:18:01;;;;;;;1.08;0.70;;;8.70;57.30;;;;;;7580292;19;20015;-74
2024/02/03 02:20:33;;;;;;;0.55;0.50;;;8.60;57.10;;;;;;7581286;19;20022;-75
2024/02/03 02:23:05;;;;;;;0.32;0.32;;;8.60;56.40;;;;;;7582179;19;21097;-75
2024/02/03 02:25:37;;;;;;;0.52;0.40;;;8.60;56.20;;;;;;7585419;19;20018;-75
2024/02/03 02:28:10;;;;;;;0.80;0.60;;;8.60;55.70;;;;;;7588573;19;20049;-74
2024/02/03 02:30:42;;;;;;;1.95;0.73;;;8.60;57.50;;;;;;7583568;19;20536;-73
2024/02/03 02:33:14;;;;;;;0.57;0.43;;;8.60;55.60;;;;;;7577826;19;20405;-74
2024/02/03 02:35:50;;;;;;;0.73;0.40;;;8.60;55.10;;;;;;7578557;19;20018;-75
2024/02/03 02:38:23;;;;;;;0.60;0.50;;;8.60;55.60;;;;;;7580130;19;20014;-73
2024/02/03 02:40:55;;;;;;;1.00;0.60;;;8.70;54.60;;;;;;7583064;19;20039;-74
2024/02/03 02:43:28;;;;;;;0.50;0.37;;;8.60;55.10;;;;;;7578206;19;20056;-74
2024/02/03 02:46:01;;;;;;;0.45;0.35;;;8.70;55.10;;;;;;7586891;19;20015;-74
2024/02/03 02:48:33;;;;;;;1.03;0.40;;;8.70;54.50;;;;;;7585815;19;20420;-76
2024/02/03 02:51:07;;;;;;;0.60;0.30;;;8.60;55.10;;;;;;7586777;19;20133;-76
2024/02/03 02:53:39;;;;;;;0.32;0.30;;;8.60;55.30;;;;;;7570917;19;20015;-75
2024/02/03 02:56:12;;;;;;;0.40;0.40;;;8.60;55.90;;;;;;7581252;19;20023;-74
2024/02/03 02:58:44;;;;;;;0.98;0.50;;;8.50;56.40;;;;;;7581440;19;20097;-74
2024/02/03 03:01:17;;;;;;;2.25;0.40;;;8.40;56.20;;;;;;7586285;19;20021;-75
2024/02/03 03:03:53;;;;;;;0.38;0.25;;;8.50;55.80;;;;;;7589937;19;20029;-74
2024/02/03 03:06:26;;;;;;;3.03;0.40;;;8.40;55.90;;;;;;7587734;19;20022;-75
2024/02/03 03:08:58;;;;;;;0.35;0.30;;;8.50;54.40;;;;;;7569942;19;20098;-74
2024/02/03 03:11:31;;;;;;;0.52;0.40;;;8.40;55.10;;;;;;7578924;19;20428;-74
2024/02/03 03:14:06;;;;;;;1.27;0.40;;;8.50;55.70;;;;;;7562889;19;20021;-75
2024/02/03 03:16:40;;;;;;;0.35;0.30;;;8.50;54.20;;;;;;7561577;19;20123;-74
2024/02/03 03:19:12;;;;;;;0.40;0.40;;;8.50;53.60;;;;;;7566123;19;20015;-74
2024/02/03 03:21:45;;;;;;;0.40;0.40;;;8.50;54.80;;;;;;7569673;19;20026;-74
2024/02/03 03:24:18;;;;;;;0.30;0.30;;;8.50;54.60;;;;;;7575813;19;20057;-74
2024/02/03 03:26:51;;;;;;;2.22;1.23;;;8.60;53.50;;;;;;7565007;19;20011;-74
2024/02/03 03:29:23;;;;;;;0.53;0.33;;;8.60;52.90;;;;;;7571445;19;21192;-73
2024/02/03 03:31:55;;;;;;;0.40;0.40;;;8.60;53.50;;;;;;7574622;19;20014;-75
2024/02/03 03:34:27;;;;;;;0.60;0.50;;;8.60;51.90;;;;;;7576504;19;20015;-74
2024/02/03 03:37:01;;;;;;;0.73;0.40;;;8.70;52.40;;;;;;7572931;19;20023;-74
2024/02/03 03:39:33;;;;;;;0.60;0.60;;;8.70;53.20;;;;;;7575347;19;20035;-74
2024/02/03 03:42:06;;;;;;;0.77;0.60;;;8.60;53.50;;;;;;7581527;19;20014;-74
2024/02/03 03:44:38;;;;;;;0.40;0.40;;;8.70;52.50;;;;;;7573119;19;20014;-74
2024/02/03 03:47:13;;;;;;;0.88;0.50;;;8.60;53.90;;;;;;7584392;19;20819;-74
2024/02/03 03:49:45;;;;;;;1.15;0.50;;;8.60;53.90;;;;;;7523715;19;20014;-74
2024/02/03 17:31:51;;;;;;;12.63;6.13;;;9.20;99.90;;;;;;7617218;19;21046;-75
2024/02/03 17:34:23;;;;;;;8.60;5.10;;;8.50;99.90;;;;;;7619068;19;20022;-74
2024/02/03 17:36:56;;;;;;;9.00;4.82;;;8.40;99.90;;;;;;7619584;19;21085;-74
2024/02/03 17:39:29;;;;;;;11.15;5.60;;;8.30;99.90;;;;;;7612731;19;20021;-74
2024/02/03 17:42:01;;;;;;;8.27;4.70;;;8.20;99.90;;;;;;7619619;19;20115;-74
2024/02/03 17:44:34;;;;;;;8.80;5.38;;;8.10;99.90;;;;;;7607159;19;20018;-74
2024/02/03 17:47:06;;;;;;;7.88;4.72;;;8.10;99.90;;;;;;7609476;19;20550;-74
2024/02/03 17:49:39;;;;;;;7.90;4.47;;;8.20;99.90;;;;;;7634267;19;20921;-73
2024/02/03 17:52:11;;;;;;;6.78;4.07;;;8.20;99.90;;;;;;7618396;19;20057;-74
2024/02/03 17:54:46;;;;;;;5.80;3.95;;;8.20;99.90;;;;;;7622435;19;20850;-74
2024/02/03 17:57:20;;;;;;;7.78;4.70;;;8.20;99.90;;;;;;7624416;19;20010;-73
2024/02/03 17:59:53;;;;;;;11.30;4.78;;;8.20;99.90;;;;;;7609428;19;20441;-74
2024/02/03 18:02:26;;;;;;;7.72;4.80;;;8.20;99.90;;;;;;7625559;19;20078;-73
2024/02/03 18:04:58;;;;;;;9.13;4.22;;;8.00;99.90;;;;;;7633691;19;20018;-74
2024/02/03 18:07:31;;;;;;;9.10;4.63;;;7.90;99.90;;;;;;7627384;19;20025;-74
2024/02/03 18:10:04;;;;;;;7.82;4.25;;;7.80;99.90;;;;;;7617151;19;20394;-74
2024/02/03 18:12:37;;;;;;;8.55;4.75;;;7.80;99.90;;;;;;7636759;19;20610;-74
2024/02/03 18:15:09;;;;;;;12.93;5.93;;;7.70;99.90;;;;;;7617061;19;20110;-74
2024/02/03 18:17:41;;;;;;;19.05;8.05;;;7.70;99.90;;;;;;7630466;19;20018;-73
2024/02/03 18:20:14;;;;;;;23.83;8.85;;;7.80;99.90;;;;;;7622564;19;20018;-76
2024/02/03 18:22:50;;;;;;;19.70;7.57;;;7.80;99.90;;;;;;7612820;19;20014;-73
2024/02/03 18:25:23;;;;;;;18.17;6.80;;;7.80;99.90;;;;;;7611335;19;20024;-74
2024/02/03 18:27:55;;;;;;;14.90;6.03;;;7.70;99.90;;;;;;7608524;19;20014;-74
2024/02/03 18:30:28;;;;;;;10.25;6.10;;;7.70;99.90;;;;;;7603435;19;20293;-74
2024/02/03 18:33:00;;;;;;;12.68;5.18;;;7.70;99.90;;;;;;7624741;19;20615;-73
2024/02/03 18:35:32;;;;;;;7.97;5.47;;;7.60;99.90;;;;;;7599559;19;20014;-74
2024/02/03 18:38:05;;;;;;;10.52;5.75;;;7.50;99.90;;;;;;7607768;19;20022;-74
2024/02/03 18:40:37;;;;;;;14.70;6.32;;;7.50;99.90;;;;;;7621052;19;20092;-74
2024/02/03 18:43:09;;;;;;;9.77;5.88;;;7.50;99.90;;;;;;7596756;19;20849;-74
2024/02/03 18:45:42;;;;;;;9.93;5.70;;;7.50;99.90;;;;;;7576477;19;20015;-74
2024/02/03 18:48:15;;;;;;;12.23;6.95;;;7.40;99.90;;;;;;7593112;19;20034;-75
2024/02/03 18:50:47;;;;;;;8.32;5.40;;;7.40;99.90;;;;;;7596680;19;20014;-74
2024/02/03 18:53:20;;;;;;;10.00;6.00;;;7.30;99.90;;;;;;7587475;19;20026;-74
2024/02/03 18:55:53;;;;;;;8.43;5.50;;;7.20;99.90;;;;;;7599081;19;20529;-75
2024/02/03 18:58:26;;;;;;;9.20;5.88;;;7.20;99.90;;;;;;7591531;19;20039;-73
2024/02/03 19:01:02;;;;;;;9.63;6.00;;;7.20;99.90;;;;;;7596385;19;20048;-73
2024/02/03 19:03:35;;;;;;;13.63;7.22;;;7.10;99.90;;;;;;7599824;19;20018;-74
2024/02/03 19:06:08;;;;;;;14.00;8.65;;;6.80;99.90;;;;;;7594448;19;20014;-74
2024/02/03 19:08:41;;;;;;;18.80;9.97;;;6.90;99.90;;;;;;7573439;19;20030;-74
2024/02/03 19:11:13;;;;;;;23.38;11.07;;;6.80;99.90;;;;;;7590926;19;20366;-74
2024/02/03 19:13:45;;;;;;;22.27;11.60;;;6.80;99.90;;;;;;7597514;19;20026;-74
2024/02/03 19:16:18;;;;;;;23.23;12.35;;;6.70;99.90;;;;;;7585387;19;20010;-74
2024/02/03 19:18:50;;;;;;;20.45;10.68;;;6.70;99.90;;;;;;7595664;19;20046;-73
2024/02/03 19:21:22;;;;;;;24.55;12.60;;;6.60;99.90;;;;;;7579530;19;21439;-74
2024/02/03 19:23:55;;;;;;;23.52;11.75;;;6.70;99.90;;;;;;7589190;19;21041;-74
2024/02/03 19:26:27;;;;;;;25.70;12.77;;;6.70;99.90;;;;;;7592377;19;20010;-73
2024/02/03 19:29:00;;;;;;;25.05;13.85;;;6.70;99.90;;;;;;7594188;19;20025;-73
2024/02/03 19:31:32;;;;;;;40.78;22.80;;;6.50;99.90;;;;;;7583351;19;20018;-74
2024/02/03 19:34:05;;;;;;;41.25;23.23;;;6.60;99.90;;;;;;7580567;19;20632;-74
2024/02/03 19:36:37;;;;;;;44.60;23.77;;;6.80;99.90;;;;;;7585396;19;20022;-76
2024/02/03 19:39:09;;;;;;;45.78;22.98;;;6.70;99.90;;;;;;7579184;19;20058;-74
2024/02/03 19:41:43;;;;;;;41.28;23.30;;;6.60;99.90;;;;;;7582462;19;20214;-74
2024/02/03 19:44:15;;;;;;;43.55;24.02;;;6.50;99.90;;;;;;7577332;19;21463;-73
2024/02/03 19:46:49;;;;;;;40.40;22.52;;;6.40;99.90;;;;;;7574589;19;20019;-74
2024/02/03 19:49:23;;;;;;;40.97;21.80;;;6.40;99.90;;;;;;7601647;19;20022;-74
2024/02/03 19:51:56;;;;;;;40.83;22.05;;;6.30;99.90;;;;;;7594713;19;20025;-74
2024/02/03 19:54:28;;;;;;;42.30;22.25;;;6.40;99.90;;;;;;7082140;19;9999879;-74
2024/02/03 19:57:00;;;;;;;38.17;21.02;;;6.40;99.90;;;;;;7074945;19;10000410;-74
2024/02/03 19:59:34;;;;;;;39.40;22.42;;;6.20;99.90;;;;;;7578562;19;21235;-75
2024/02/03 20:02:07;;;;;;;43.00;22.90;;;6.10;99.90;;;;;;7586892;19;20017;-75
2024/02/03 20:04:41;;;;;;;41.50;22.45;;;6.00;99.90;;;;;;7585944;19;20737;-74
2024/02/03 20:07:14;;;;;;;;;;;6.10;99.90;;;;;;7577751;19;20018;-75
2024/02/03 20:09:47;;;;;;;40.53;21.80;;;6.10;99.90;;;;;;7578088;19;19974;-74
2024/02/03 20:12:19;;;;;;;41.15;21.92;;;6.10;99.90;;;;;;7585053;19;20006;-74
2024/02/03 20:14:51;;;;;;;37.80;21.77;;;6.10;99.90;;;;;;7572254;19;20063;-73
2024/02/03 20:17:24;;;;;;;39.50;21.15;;;5.90;99.90;;;;;;7582198;19;20028;-74
2024/02/03 20:19:56;;;;;;;43.42;23.92;;;5.80;99.90;;;;;;7573392;19;20062;-75
2024/02/03 20:22:29;;;;;;;43.73;23.43;;;5.70;99.90;;;;;;7575856;19;20010;-75
2024/02/03 20:25:02;;;;;;;44.10;23.80;;;5.60;99.90;;;;;;7580763;19;20309;-74
2024/02/03 20:27:36;;;;;;;43.08;23.42;;;5.50;99.90;;;;;;7589824;19;20026;-75
2024/02/03 20:30:09;;;;;;;38.65;23.52;;;5.40;99.90;;;;;;7583296;19;20445;-75
2024/02/03 20:32:41;;;;;;;42.25;23.48;;;5.40;99.90;;;;;;7586395;19;20687;-75
2024/02/03 20:35:13;;;;;;;39.22;23.13;;;5.30;99.90;;;;;;7581727;19;20014;-74
2024/02/03 20:37:46;;;;;;;35.83;21.52;;;5.40;99.90;;;;;;7576960;19;20015;-75
2024/02/03 20:40:19;;;;;;;38.63;21.55;;;5.40;99.90;;;;;;7580280;19;20535;-74
2024/02/03 20:42:51;;;;;;;41.33;23.45;;;5.40;99.90;;;;;;7565588;19;20472;-74
2024/02/03 20:45:26;;;;;;;39.35;22.77;;;5.40;99.90;;;;;;7569267;19;20015;-74
2024/02/03 20:47:59;;;;;;;41.47;23.77;;;5.40;99.90;;;;;;7574855;19;20022;-75
2024/02/03 20:50:32;;;;;;;42.85;23.77;;;5.40;99.90;;;;;;7578180;19;20018;-74
2024/02/03 20:53:04;;;;;;;34.90;20.73;;;5.50;99.90;;;;;;7570943;19;22351;-74
2024/02/03 20:55:37;;;;;;;40.10;21.95;;;5.60;99.90;;;;;;7575969;19;20548;-74
2024/02/03 20:58:12;;;;;;;37.40;21.43;;;5.70;99.90;;;;;;7579679;19;20627;-74
2024/02/03 21:00:45;;;;;;;37.10;21.15;;;5.70;99.90;;;;;;7564420;19;21830;-74
2024/02/03 21:03:17;;;;;;;44.53;22.77;;;5.70;99.90;;;;;;7590718;19;20022;-74
2024/02/03 21:05:50;;;;;;;35.80;19.23;;;5.60;99.90;;;;;;7583185;19;20029;-74
2024/02/03 21:08:23;;;;;;;40.15;20.58;;;5.40;99.90;;;;;;7582174;19;20395;-73
2024/02/03 21:10:56;;;;;;;34.10;20.08;;;5.40;99.90;;;;;;7585144;19;20022;-75
2024/02/03 21:13:29;;;;;;;35.17;20.73;;;5.40;99.90;;;;;;7583921;19;20111;-73
2024/02/03 21:16:02;;;;;;;33.72;20.25;;;5.40;99.90;;;;;;7570784;19;20015;-74
2024/02/03 21:18:35;;;;;;;35.72;20.67;;;5.30;99.90;;;;;;7577592;19;20354;-74
2024/02/03 21:21:07;;;;;;;34.73;20.83;;;5.20;99.90;;;;;;7578922;19;20034;-74
2024/02/03 21:23:43;;;;;;;36.85;19.33;;;5.20;99.90;;;;;;7591473;19;20013;-73
2024/02/03 21:26:16;;;;;;;30.90;19.45;;;5.30;99.90;;;;;;7585158;19;20011;-74
2024/02/03 21:28:48;;;;;;;32.28;19.08;;;5.40;99.90;;;;;;7562968;19;20026;-74
2024/02/03 21:31:21;;;;;;;27.48;17.30;;;5.40;99.90;;;;;;7582855;19;20029;-74
2024/02/03 21:33:54;;;;;;;28.70;17.75;;;5.50;99.90;;;;;;7568765;19;20027;-74
2024/02/03 21:36:27;;;;;;;27.90;17.42;;;5.60;99.90;;;;;;7589272;19;20022;-73
2024/02/03 21:38:59;;;;;;;23.38;15.23;;;5.60;99.90;;;;;;7586121;19;20010;-73
2024/02/03 21:41:32;;;;;;;26.77;15.88;;;5.70;99.90;;;;;;7579550;19;24667;-74
2024/02/03 21:44:04;;;;;;;26.92;17.52;;;5.70;99.90;;;;;;7571151;19;20014;-74
2024/02/03 21:46:37;;;;;;;25.25;15.95;;;5.60;99.90;;;;;;7578892;19;20018;-74
2024/02/03 21:49:09;;;;;;;21.35;13.98;;;5.60;99.90;;;;;;7593621;19;20431;-74
2024/02/03 21:51:42;;;;;;;25.40;15.60;;;5.60;99.90;;;;;;7583895;19;21871;-74
2024/02/03 21:54:14;;;;;;;23.77;15.18;;;5.70;99.90;;;;;;7571810;19;20370;-74
2024/02/03 21:56:47;;;;;;;22.92;14.57;;;5.70;99.90;;;;;;7566347;19;20022;-74
2024/02/03 21:59:19;;;;;;;25.40;15.48;;;5.60;99.90;;;;;;7571472;19;26784;-73
2024/02/03 22:01:52;;;;;;;24.05;15.32;;;5.60;99.90;;;;;;7553184;19;20028;-76
2024/02/03 22:04:24;;;;;;;24.52;14.98;;;5.50;99.90;;;;;;7542267;19;20056;-74
2024/02/03 22:06:57;;;;;;;22.23;14.63;;;5.60;99.90;;;;;;7585376;19;21149;-73
2024/02/03 22:09:29;;;;;;;24.70;14.88;;;5.70;99.90;;;;;;7570850;19;20594;-73
2024/02/03 22:12:02;;;;;;;23.35;15.93;;;5.70;99.90;;;;;;7579659;19;20610;-73
2024/02/03 22:14:35;;;;;;;23.90;13.90;;;5.70;99.90;;;;;;7587073;19;20026;-74
2024/02/03 22:17:07;;;;;;;26.63;14.57;;;5.70;99.90;;;;;;7584694;19;20010;-76
2024/02/03 22:19:39;;;;;;;21.52;13.25;;;5.70;99.90;;;;;;7593802;19;20015;-74
2024/02/03 22:22:12;;;;;;;20.15;13.35;;;5.70;99.90;;;;;;7592353;19;20228;-75
2024/02/03 22:24:44;;;;;;;20.92;12.15;;;5.80;99.90;;;;;;7588209;19;20014;-74
2024/02/03 22:27:17;;;;;;;22.05;13.02;;;5.80;99.90;;;;;;7564428;19;20018;-74
2024/02/03 22:29:50;;;;;;;21.77;12.30;;;5.90;99.90;;;;;;7525881;19;20014;-74
2024/02/03 22:32:22;;;;;;;17.42;11.55;;;5.90;99.90;;;;;;7517327;19;20131;-74
2024/02/03 22:34:56;;;;;;;21.37;10.90;;;5.90;99.90;;;;;;7539618;19;20015;-74
